createdAt,value
2018-06-13T00:01:34.611Z,15.30
2018-06-13T00:04:03.830Z,15.15
2018-06-13T00:06:33.059Z,15.27
2018-06-13T00:09:02.846Z,15.13
2018-06-13T00:11:32.050Z,15.08
2018-06-13T00:14:01.259Z,15.26
2018-06-13T00:16:30.493Z,15.23
2018-06-13T00:18:59.707Z,15.18
2018-06-13T00:21:28.954Z,15.14
2018-06-13T00:23:58.245Z,15.20
2018-06-13T00:26:27.575Z,15.47
2018-06-13T00:28:56.806Z,15.25
2018-06-13T00:31:26.062Z,15.45
2018-06-13T00:33:58.379Z,15.64
2018-06-13T00:36:27.603Z,15.59
2018-06-13T00:38:56.815Z,15.57
2018-06-13T00:41:26.039Z,15.62
2018-06-13T00:43:55.270Z,15.50
2018-06-13T00:46:24.491Z,15.31
2018-06-13T00:48:53.746Z,15.31
2018-06-13T00:51:22.974Z,15.21
2018-06-13T00:53:52.203Z,15.19
2018-06-13T00:56:29.046Z,15.20
2018-06-13T00:58:58.346Z,15.22
2018-06-13T01:01:27.574Z,15.22
2018-06-13T01:03:56.786Z,15.48
2018-06-13T01:06:26.028Z,15.49
2018-06-13T01:08:55.288Z,15.41
2018-06-13T01:11:24.517Z,15.31
2018-06-13T01:13:53.765Z,15.54
2018-06-13T01:16:22.973Z,15.41
2018-06-13T01:18:52.275Z,15.29
2018-06-13T01:21:21.477Z,15.35
2018-06-13T01:23:50.779Z,15.30
2018-06-13T01:26:22.888Z,15.24
2018-06-13T01:28:52.144Z,15.21
2018-06-13T01:31:52.685Z,15.24
2018-06-13T01:34:21.968Z,15.32
2018-06-13T01:36:51.174Z,15.23
2018-06-13T01:39:20.418Z,15.14
2018-06-13T01:41:49.642Z,15.03
2018-06-13T01:44:18.881Z,15.12
2018-06-13T01:46:48.099Z,15.05
2018-06-13T01:49:17.327Z,15.12
2018-06-13T01:51:46.539Z,15.11
2018-06-13T01:54:15.791Z,15.07
2018-06-13T01:56:44.994Z,15.06
2018-06-13T01:59:14.222Z,15.07
2018-06-13T02:01:43.438Z,15.12
2018-06-13T02:04:12.663Z,15.12
2018-06-13T02:06:41.885Z,15.18
2018-06-13T02:09:11.263Z,15.16
2018-06-13T02:11:40.527Z,15.19
2018-06-13T02:14:09.743Z,15.15
2018-06-13T02:16:38.958Z,15.13
2018-06-13T02:19:08.201Z,15.06
2018-06-13T02:21:37.542Z,15.02
2018-06-13T02:24:06.959Z,14.99
2018-06-13T02:26:36.167Z,14.97
2018-06-13T02:29:05.486Z,14.96
2018-06-13T02:31:34.742Z,14.93
2018-06-13T02:34:03.978Z,14.96
2018-06-13T02:36:33.199Z,14.92
2018-06-13T02:39:02.464Z,14.90
2018-06-13T02:41:31.678Z,14.88
2018-06-13T02:44:00.908Z,14.91
2018-06-13T02:46:30.126Z,14.83
2018-06-13T02:48:59.383Z,14.79
2018-06-13T02:51:28.611Z,14.77
2018-06-13T02:53:57.839Z,14.77
2018-06-13T02:56:27.055Z,14.76
2018-06-13T02:58:56.366Z,14.75
2018-06-13T03:01:25.575Z,14.72
2018-06-13T03:03:54.902Z,14.72
2018-06-13T03:06:24.126Z,14.69
2018-06-13T03:08:53.485Z,14.71
2018-06-13T03:11:22.796Z,14.69
2018-06-13T03:13:51.990Z,14.74
2018-06-13T03:16:21.223Z,14.85
2018-06-13T03:18:50.447Z,14.93
2018-06-13T03:21:19.688Z,14.88
2018-06-13T03:23:48.923Z,14.90
2018-06-13T03:26:18.213Z,14.89
2018-06-13T03:28:47.500Z,14.90
2018-06-13T03:31:16.815Z,14.86
2018-06-13T03:33:46.032Z,14.88
2018-06-13T03:36:15.232Z,14.86
2018-06-13T03:38:44.489Z,14.88
2018-06-13T03:41:13.715Z,14.91
2018-06-13T03:43:42.934Z,14.97
2018-06-13T03:46:12.175Z,14.98
2018-06-13T03:48:41.404Z,14.98
2018-06-13T03:51:10.643Z,15.01
2018-06-13T03:53:39.874Z,15.02
2018-06-13T03:56:09.274Z,15.02
2018-06-13T03:58:38.535Z,15.06
2018-06-13T04:01:07.793Z,15.11
2018-06-13T04:03:37.079Z,15.10
2018-06-13T04:06:06.329Z,15.11
2018-06-13T04:08:35.570Z,15.22
2018-06-13T04:11:04.798Z,15.22
2018-06-13T04:13:34.035Z,15.20
2018-06-13T04:16:03.278Z,15.22
2018-06-13T04:18:32.508Z,15.13
2018-06-13T04:21:01.752Z,15.25
2018-06-13T04:23:30.989Z,15.20
2018-06-13T04:26:00.229Z,15.19
2018-06-13T04:28:29.492Z,15.25
2018-06-13T04:30:58.788Z,15.28
2018-06-13T04:33:28.001Z,15.32
2018-06-13T04:35:57.236Z,15.32
2018-06-13T04:38:26.466Z,15.42
2018-06-13T04:40:55.710Z,15.40
2018-06-13T04:43:24.918Z,15.45
2018-06-13T04:45:54.207Z,15.55
2018-06-13T04:48:23.451Z,15.57
2018-06-13T04:50:52.683Z,15.66
2018-06-13T04:53:21.903Z,15.69
2018-06-13T04:55:51.130Z,15.56
2018-06-13T04:58:20.370Z,15.54
2018-06-13T05:00:49.558Z,15.53
2018-06-13T05:03:18.798Z,15.45
2018-06-13T05:05:48.027Z,15.37
2018-06-13T05:08:17.242Z,15.32
2018-06-13T05:10:46.485Z,15.26
2018-06-13T05:13:15.700Z,15.15
2018-06-13T05:15:44.916Z,15.14
2018-06-13T05:18:14.195Z,15.05
2018-06-13T05:20:43.534Z,15.04
2018-06-13T05:23:12.745Z,14.94
2018-06-13T05:25:42.093Z,14.89
2018-06-13T05:28:11.342Z,14.95
2018-06-13T05:30:40.599Z,14.92
2018-06-13T05:33:09.842Z,14.98
2018-06-13T05:35:39.126Z,14.91
2018-06-13T05:38:08.372Z,14.88
2018-06-13T05:40:37.643Z,14.85
2018-06-13T05:43:06.865Z,14.86
2018-06-13T05:45:36.099Z,14.83
2018-06-13T05:48:05.460Z,14.85
2018-06-13T05:50:34.686Z,14.85
2018-06-13T05:53:03.924Z,14.92
2018-06-13T05:55:33.164Z,14.90
2018-06-13T05:58:02.393Z,14.80
2018-06-13T06:00:31.593Z,14.59
2018-06-13T06:03:01.005Z,14.46
2018-06-13T06:05:30.213Z,14.47
2018-06-13T06:07:59.461Z,14.50
2018-06-13T06:10:28.734Z,14.44
2018-06-13T06:12:57.939Z,14.46
2018-06-13T06:15:27.139Z,14.44
2018-06-13T06:17:56.374Z,14.40
2018-06-13T06:20:25.580Z,14.33
2018-06-13T06:22:55.235Z,14.46
2018-06-13T06:25:24.469Z,14.40
2018-06-13T06:27:53.672Z,14.38
2018-06-13T06:30:22.903Z,14.35
2018-06-13T06:32:52.157Z,14.33
2018-06-13T06:35:21.165Z,14.46
2018-06-13T06:37:50.407Z,14.52
2018-06-13T06:40:19.657Z,14.56
2018-06-13T06:42:48.879Z,14.55
2018-06-13T06:45:18.096Z,14.49
2018-06-13T06:47:47.397Z,14.37
2018-06-13T06:50:16.588Z,14.24
2018-06-13T06:52:45.819Z,14.12
2018-06-13T06:55:15.098Z,14.11
2018-06-13T06:57:44.282Z,14.03
2018-06-13T07:00:13.498Z,14.14
2018-06-13T07:02:42.957Z,14.21
2018-06-13T07:05:12.143Z,14.25
2018-06-13T07:07:41.360Z,14.28
2018-06-13T07:10:10.599Z,14.29
2018-06-13T07:12:39.816Z,14.25
2018-06-13T07:15:09.241Z,14.22
2018-06-13T07:17:38.467Z,14.17
2018-06-13T07:20:07.692Z,14.08
2018-06-13T07:22:36.935Z,13.93
2018-06-13T07:25:06.174Z,13.90
2018-06-13T07:27:35.435Z,13.92
2018-06-13T07:30:04.740Z,13.95
2018-06-13T07:32:34.018Z,13.91
2018-06-13T07:35:03.286Z,13.92
2018-06-13T07:37:32.498Z,13.75
2018-06-13T07:40:01.722Z,13.74
2018-06-13T07:42:30.946Z,13.65
2018-06-13T07:45:00.158Z,13.53
2018-06-13T07:47:29.438Z,13.53
2018-06-13T07:49:58.639Z,13.42
2018-06-13T07:52:27.899Z,13.37
2018-06-13T07:54:57.124Z,13.41
2018-06-13T07:57:32.986Z,13.45
2018-06-13T08:00:02.203Z,13.40
2018-06-13T08:02:31.550Z,13.33
2018-06-13T08:05:00.803Z,13.41
2018-06-13T08:07:30.011Z,13.36
2018-06-13T08:09:59.334Z,13.10
2018-06-13T08:12:28.547Z,13.16
2018-06-13T08:14:57.775Z,13.09
2018-06-13T08:17:27.072Z,13.21
2018-06-13T08:19:56.298Z,13.21
2018-06-13T08:22:25.589Z,13.13
2018-06-13T08:24:55.878Z,13.13
2018-06-13T08:27:25.099Z,13.10
2018-06-13T08:29:55.441Z,13.09
2018-06-13T08:32:24.735Z,13.17
2018-06-13T08:34:54.053Z,13.11
2018-06-13T08:37:23.270Z,13.13
2018-06-13T08:39:52.516Z,13.04
2018-06-13T08:42:21.718Z,13.07
2018-06-13T08:44:50.974Z,12.98
2018-06-13T08:47:20.294Z,13.00
2018-06-13T08:49:49.575Z,13.15
2018-06-13T08:52:18.782Z,13.15
2018-06-13T08:54:48.006Z,13.15
2018-06-13T08:57:17.222Z,13.17
2018-06-13T08:59:46.439Z,13.04
2018-06-13T09:02:15.678Z,13.21
2018-06-13T09:04:44.911Z,13.23
2018-06-13T09:07:14.142Z,13.36
2018-06-13T09:09:43.364Z,13.52
2018-06-13T09:12:12.599Z,13.58
2018-06-13T09:14:41.795Z,13.53
2018-06-13T09:17:11.018Z,13.55
2018-06-13T09:19:40.235Z,13.56
2018-06-13T09:22:09.511Z,13.47
2018-06-13T09:24:38.815Z,13.41
2018-06-13T09:27:08.109Z,13.36
2018-06-13T09:29:37.328Z,13.31
2018-06-13T09:32:06.542Z,13.34
2018-06-13T09:34:35.827Z,13.22
2018-06-13T09:37:05.040Z,13.15
2018-06-13T09:39:34.275Z,13.10
2018-06-13T09:42:03.297Z,13.15
2018-06-13T09:44:32.551Z,13.14
2018-06-13T09:47:06.904Z,13.13
2018-06-13T09:49:31.004Z,13.14
2018-06-13T09:52:00.215Z,13.15
2018-06-13T09:54:29.447Z,13.21
2018-06-13T09:56:58.651Z,13.13
2018-06-13T09:59:33.166Z,13.02
2018-06-13T10:02:07.557Z,13.09
2018-06-13T10:04:36.832Z,13.09
2018-06-13T10:07:06.068Z,12.89
2018-06-13T10:09:39.844Z,12.78
2018-06-13T10:12:13.481Z,12.79
2018-06-13T10:14:47.135Z,12.94
2018-06-13T10:17:20.682Z,12.92
2018-06-13T10:19:53.867Z,12.93
2018-06-13T10:22:23.074Z,12.77
2018-06-13T10:24:52.320Z,12.75
2018-06-13T10:27:26.804Z,12.91
2018-06-13T10:29:56.033Z,12.98
2018-06-13T10:32:25.229Z,12.86
2018-06-13T10:34:54.462Z,12.94
2018-06-13T10:37:23.495Z,12.79
2018-06-13T10:39:52.748Z,12.68
2018-06-13T10:42:22.030Z,12.75
2018-06-13T10:44:51.255Z,12.71
2018-06-13T10:47:20.500Z,12.69
2018-06-13T10:49:49.734Z,12.60
2018-06-13T10:52:18.951Z,12.71
2018-06-13T10:54:48.463Z,12.79
2018-06-13T10:57:17.808Z,12.85
2018-06-13T10:59:47.038Z,12.88
2018-06-13T11:02:16.268Z,12.91
2018-06-13T11:04:45.529Z,13.04
2018-06-13T11:07:14.505Z,13.09
2018-06-13T11:09:43.716Z,13.11
2018-06-13T11:12:12.970Z,13.13
2018-06-13T11:14:42.192Z,13.18
2018-06-13T11:17:11.545Z,13.14
2018-06-13T11:19:40.852Z,13.13
2018-06-13T11:22:10.075Z,13.19
2018-06-13T11:24:39.278Z,13.10
2018-06-13T11:27:08.504Z,13.15
2018-06-13T11:29:37.731Z,13.40
2018-06-13T11:32:07.066Z,13.29
2018-06-13T11:34:36.326Z,13.36
2018-06-13T11:37:05.934Z,13.31
2018-06-13T11:39:35.189Z,13.25
2018-06-13T11:42:04.483Z,12.80
2018-06-13T11:44:33.690Z,12.98
2018-06-13T11:47:03.078Z,13.22
2018-06-13T11:49:33.099Z,13.22
2018-06-13T11:52:03.812Z,13.23
2018-06-13T11:54:33.071Z,13.27
2018-06-13T11:57:02.553Z,13.06
2018-06-13T11:59:31.775Z,13.02
2018-06-13T12:02:00.988Z,12.92
2018-06-13T12:04:30.240Z,12.92
2018-06-13T12:06:59.443Z,13.09
2018-06-13T12:09:28.676Z,12.79
2018-06-13T12:11:57.935Z,12.79
2018-06-13T12:14:27.157Z,12.63
2018-06-13T12:16:56.399Z,12.59
2018-06-13T12:19:25.605Z,12.64
2018-06-13T12:21:54.826Z,12.56
2018-06-13T12:24:24.086Z,12.51
2018-06-13T12:26:53.354Z,12.55
2018-06-13T12:29:23.815Z,12.61
2018-06-13T12:31:53.072Z,12.64
2018-06-13T12:34:22.397Z,12.60
2018-06-13T12:36:51.595Z,12.70
2018-06-13T12:39:20.832Z,12.58
2018-06-13T12:41:50.119Z,12.74
2018-06-13T12:44:19.107Z,12.83
2018-06-13T12:46:48.387Z,12.87
2018-06-13T12:49:17.677Z,12.83
2018-06-13T12:51:46.998Z,12.88
2018-06-13T12:54:16.226Z,12.91
2018-06-13T12:56:45.358Z,12.96
2018-06-13T12:59:14.588Z,12.88
2018-06-13T13:01:43.786Z,12.73
2018-06-13T13:04:13.015Z,12.78
2018-06-13T13:06:42.243Z,12.73
2018-06-13T13:09:13.296Z,12.72
2018-06-13T13:11:43.091Z,12.57
2018-06-13T13:14:12.508Z,12.63
2018-06-13T13:16:41.491Z,12.79
2018-06-13T13:19:10.910Z,12.71
2018-06-13T13:21:40.149Z,12.72
2018-06-13T13:24:09.426Z,12.60
2018-06-13T13:26:38.663Z,12.68
2018-06-13T13:29:07.899Z,12.78
2018-06-13T13:31:37.100Z,12.92
2018-06-13T13:34:06.342Z,12.76
2018-06-13T13:36:35.588Z,12.81
2018-06-13T13:39:07.714Z,12.84
2018-06-13T13:41:38.222Z,12.81
2018-06-13T13:44:07.466Z,12.75
2018-06-13T13:46:36.680Z,12.79
2018-06-13T13:49:06.237Z,12.88
2018-06-13T13:51:35.512Z,13.09
2018-06-13T13:54:04.831Z,13.19
2018-06-13T13:56:33.983Z,12.85
2018-06-13T13:59:03.210Z,12.88
2018-06-13T14:01:32.476Z,12.96
2018-06-13T14:04:01.739Z,13.05
2018-06-13T14:06:30.955Z,12.99
2018-06-13T14:09:00.191Z,13.05
2018-06-13T14:11:29.419Z,13.11
2018-06-13T14:13:58.639Z,13.20
2018-06-13T14:16:27.858Z,12.98
2018-06-13T14:18:57.193Z,12.95
2018-06-13T14:21:26.430Z,13.04
2018-06-13T14:23:55.730Z,13.01
2018-06-13T14:26:25.063Z,12.94
2018-06-13T14:28:54.499Z,12.84
2018-06-13T14:31:23.743Z,12.84
2018-06-13T14:33:53.069Z,12.81
2018-06-13T14:36:22.307Z,12.74
2018-06-13T14:38:51.559Z,12.67
2018-06-13T14:41:20.782Z,12.94
2018-06-13T14:43:50.091Z,13.04
2018-06-13T14:46:19.386Z,12.91
2018-06-13T14:48:48.680Z,12.77
2018-06-13T14:51:17.978Z,12.74
2018-06-13T14:53:47.197Z,12.69
2018-06-13T14:56:21.678Z,12.66
2018-06-13T14:58:50.924Z,12.76
2018-06-13T15:01:20.160Z,12.70
2018-06-13T15:03:49.382Z,12.74
2018-06-13T15:06:18.666Z,12.74
2018-06-13T15:08:47.891Z,12.55
2018-06-13T15:11:17.132Z,12.66
2018-06-13T15:13:46.406Z,12.72
2018-06-13T15:16:15.697Z,12.64
2018-06-13T15:18:45.099Z,12.60
2018-06-13T15:21:14.425Z,12.53
2018-06-13T15:23:43.729Z,12.53
2018-06-13T15:26:13.093Z,12.53
2018-06-13T15:28:42.440Z,12.32
2018-06-13T15:31:12.983Z,12.30
2018-06-13T15:33:42.307Z,12.33
2018-06-13T15:36:11.526Z,12.25
2018-06-13T15:38:40.760Z,12.22
2018-06-13T15:41:09.991Z,12.20
2018-06-13T15:43:39.215Z,12.16
2018-06-13T15:46:08.439Z,12.23
2018-06-13T15:48:37.638Z,12.28
2018-06-13T15:51:06.869Z,12.41
2018-06-13T15:53:36.209Z,12.29
2018-06-13T15:56:05.951Z,12.19
2018-06-13T15:58:35.166Z,12.29
2018-06-13T16:01:04.394Z,12.33
2018-06-13T16:03:33.619Z,12.40
2018-06-13T16:06:02.941Z,12.45
2018-06-13T16:08:32.162Z,12.44
2018-06-13T16:11:01.430Z,12.40
2018-06-13T16:13:30.644Z,12.44
2018-06-13T16:15:59.871Z,12.44
2018-06-13T16:18:29.069Z,12.38
2018-06-13T16:20:58.323Z,12.28
2018-06-13T16:23:27.550Z,12.22
2018-06-13T16:25:56.782Z,12.18
2018-06-13T16:28:26.006Z,12.20
2018-06-13T16:30:55.251Z,12.23
2018-06-13T16:33:24.746Z,12.08
2018-06-13T16:35:54.035Z,12.15
2018-06-13T16:38:23.275Z,12.12
2018-06-13T16:40:52.530Z,12.13
2018-06-13T16:43:21.770Z,12.27
2018-06-13T16:45:51.077Z,12.25
2018-06-13T16:48:20.317Z,12.24
2018-06-13T16:51:06.445Z,12.12
2018-06-13T16:53:53.920Z,12.14
2018-06-13T16:56:23.258Z,12.14
2018-06-13T16:58:52.568Z,12.16
2018-06-13T17:01:22.681Z,12.08
2018-06-13T17:03:52.696Z,12.07
2018-06-13T17:06:21.979Z,12.03
2018-06-13T17:08:51.507Z,12.08
2018-06-13T17:11:20.845Z,12.04
2018-06-13T17:13:50.067Z,12.13
2018-06-13T17:16:19.294Z,12.13
2018-06-13T17:18:48.337Z,12.02
2018-06-13T17:21:17.558Z,12.07
2018-06-13T17:23:46.800Z,12.09
2018-06-13T17:26:16.022Z,12.12
2018-06-13T17:28:45.015Z,12.00
2018-06-13T17:31:14.250Z,12.13
2018-06-13T17:33:43.493Z,12.18
2018-06-13T17:36:12.778Z,12.03
2018-06-13T17:38:41.988Z,12.06
2018-06-13T17:41:11.552Z,12.10
2018-06-13T17:43:40.763Z,12.11
2018-06-13T17:46:10.010Z,11.91
2018-06-13T17:48:39.238Z,12.16
2018-06-13T17:51:08.474Z,12.03
2018-06-13T17:53:37.693Z,12.05
2018-06-13T17:56:06.924Z,12.12
2018-06-13T17:58:36.143Z,12.27
2018-06-13T18:01:05.384Z,12.28
2018-06-13T18:03:34.633Z,12.23
2018-06-13T18:06:03.856Z,12.15
2018-06-13T18:08:33.081Z,12.04
2018-06-13T18:11:02.312Z,12.10
2018-06-13T18:13:31.523Z,12.35
2018-06-13T18:16:00.735Z,12.30
2018-06-13T18:18:30.023Z,12.11
2018-06-13T18:20:59.247Z,12.26
2018-06-13T18:23:28.498Z,12.18
2018-06-13T18:25:57.715Z,12.02
2018-06-13T18:28:26.943Z,12.04
2018-06-13T18:30:56.151Z,12.26
2018-06-13T18:33:25.386Z,12.08
2018-06-13T18:35:54.594Z,12.05
2018-06-13T18:38:23.838Z,11.98
2018-06-13T18:40:53.050Z,12.00
2018-06-13T18:43:22.275Z,12.10
2018-06-13T18:45:51.478Z,12.06
2018-06-13T18:48:35.544Z,12.04
2018-06-13T18:51:04.753Z,12.02
2018-06-13T18:53:34.274Z,12.02
2018-06-13T18:56:03.482Z,11.98
2018-06-13T18:58:32.743Z,11.98
2018-06-13T19:14:18.030Z,11.68
2018-06-13T19:16:47.412Z,11.89
2018-06-13T19:19:16.663Z,11.94
2018-06-13T19:21:45.863Z,12.00
2018-06-13T19:24:15.079Z,11.96
2018-06-13T19:26:44.313Z,12.19
2018-06-13T19:29:13.546Z,12.28
2018-06-13T19:31:42.755Z,12.30
2018-06-13T19:34:11.987Z,12.20
2018-06-13T19:36:41.214Z,12.05
2018-06-13T19:39:11.009Z,12.33
2018-06-13T19:41:41.472Z,12.25
2018-06-13T19:44:10.686Z,12.11
2018-06-13T19:46:40.094Z,12.12
2018-06-13T19:49:09.320Z,12.36
2018-06-13T19:51:38.531Z,12.21
2018-06-13T19:54:12.949Z,12.16
2018-06-13T19:56:42.271Z,12.24
2018-06-13T19:59:11.518Z,12.31
2018-06-13T20:01:40.731Z,12.25
2018-06-13T20:04:15.313Z,12.22
2018-06-13T20:06:44.543Z,12.20
2018-06-13T20:09:14.533Z,12.08
2018-06-13T20:11:43.734Z,12.15
2018-06-13T20:14:18.136Z,12.08
2018-06-13T20:16:53.659Z,12.20
2018-06-13T20:19:28.243Z,12.08
2018-06-13T20:21:58.894Z,11.90
2018-06-13T20:24:28.137Z,11.87
2018-06-13T20:27:02.479Z,11.79
2018-06-13T20:29:36.995Z,11.99
2018-06-13T20:32:07.497Z,11.84
2018-06-13T20:34:36.744Z,11.78
2018-06-13T20:37:06.204Z,11.87
2018-06-13T20:39:35.425Z,11.97
2018-06-13T20:42:04.642Z,11.77
2018-06-13T20:44:33.896Z,11.92
2018-06-13T20:47:03.127Z,12.05
2018-06-13T20:49:32.390Z,11.95
2018-06-13T20:52:01.655Z,11.73
2018-06-13T20:54:30.950Z,11.86
2018-06-13T20:57:00.172Z,11.83
2018-06-13T20:59:29.479Z,11.89
2018-06-13T21:01:58.701Z,11.88
2018-06-13T21:04:27.934Z,11.82
2018-06-13T21:06:57.153Z,11.91
2018-06-13T21:09:26.471Z,11.84
2018-06-13T21:11:55.683Z,11.86
2018-06-13T21:14:24.908Z,11.82
2018-06-13T21:16:53.894Z,11.67
2018-06-13T21:19:23.125Z,11.62
2018-06-13T21:21:52.388Z,11.55
2018-06-13T21:24:21.594Z,11.59
2018-06-13T21:26:50.832Z,11.48
2018-06-13T21:29:20.058Z,12.04
2018-06-13T21:31:49.294Z,11.95
2018-06-13T21:34:18.543Z,12.01
2018-06-13T21:36:47.775Z,12.09
2018-06-13T21:39:16.999Z,12.00
2018-06-13T21:41:46.314Z,12.11
2018-06-13T21:44:15.598Z,12.04
2018-06-13T21:46:44.858Z,11.83
2018-06-13T21:49:14.096Z,11.72
2018-06-13T21:51:43.411Z,11.86
2018-06-13T21:54:13.249Z,11.99
2018-06-13T21:56:42.479Z,11.77
2018-06-13T21:59:11.707Z,11.58
2018-06-13T22:01:40.924Z,11.75
2018-06-13T22:04:10.136Z,11.83
2018-06-13T22:06:39.366Z,11.89
2018-06-13T22:09:10.496Z,11.78
2018-06-13T22:11:44.944Z,11.84
2018-06-13T22:14:14.184Z,11.90
2018-06-13T22:16:43.418Z,11.62
2018-06-13T22:19:12.777Z,11.36
2018-06-13T22:21:42.019Z,11.34
2018-06-13T22:24:11.794Z,11.47
2018-06-13T22:26:41.017Z,11.51
2018-06-13T22:29:10.275Z,11.39
2018-06-13T22:31:39.526Z,11.67
2018-06-13T22:34:08.896Z,11.61
2018-06-13T22:36:41.189Z,11.38
2018-06-13T22:39:12.215Z,11.22
2018-06-13T22:41:41.853Z,11.36
2018-06-13T22:44:11.062Z,11.38
2018-06-13T22:46:40.448Z,11.28
2018-06-13T22:49:09.619Z,11.57
2018-06-13T22:51:39.806Z,11.49
2018-06-13T22:54:09.019Z,11.49
2018-06-13T22:56:38.350Z,11.48
2018-06-13T22:59:07.567Z,11.52
2018-06-13T23:01:36.782Z,11.47
2018-06-13T23:04:06.282Z,11.58
2018-06-13T23:06:35.499Z,11.45
2018-06-13T23:09:07.030Z,11.44
2018-06-13T23:11:36.441Z,11.57
2018-06-13T23:14:05.658Z,11.42
2018-06-13T23:16:34.885Z,11.61
2018-06-13T23:19:04.098Z,11.46
2018-06-13T23:21:33.326Z,11.43
2018-06-13T23:24:02.581Z,11.37
2018-06-13T23:26:31.816Z,11.44
2018-06-13T23:29:01.037Z,11.53
2018-06-13T23:31:30.277Z,11.36
2018-06-13T23:33:59.504Z,11.58
2018-06-13T23:36:28.746Z,11.41
2018-06-13T23:38:57.949Z,11.35
2018-06-13T23:41:27.171Z,11.38
2018-06-13T23:43:56.435Z,11.35
2018-06-13T23:46:25.661Z,11.40
2018-06-13T23:48:54.903Z,11.32
2018-06-13T23:51:24.228Z,11.40
2018-06-13T23:53:53.550Z,11.56
2018-06-13T23:56:22.790Z,11.48
2018-06-13T23:58:52.172Z,11.37
